Terminal Aerodrome Forecast
Issued by NWS Shreveport, LA

Home | Current Version | Previous Version | Text Only | Print | Product List | Glossary On
Versions: 1 2 3 4 5 6 7 8 9 10 11 12 13 14 15 16 17 18
000
FTUS44 KSHV 261137
TAFGGG
TAF
KGGG 261137Z 2612/2712 19011KT P6SM OVC015
      TEMPO 2612/2615 19015G23KT BKN007
     FM261500 21013G22KT P6SM OVC020
     FM262000 19015G24KT P6SM BKN045
     FM270100 17012KT P6SM OVC050
     FM270600 18011KT P6SM OVC015=

USA.gov is the U.S. government's official web portal to all federal, state and local government web resources and services.